Terminal Aerodrome Forecast
Issued by NWS Blacksburg, VA

Home | Current Version | Previous Version | Text Only | Print | Product List | Glossary On
Versions: 1 2 3 4 5 6 7 8 9 10 11 12 13 14 15 16 17 18 19 20 21 22 23 24 25 26 27 28 29 30 31 32 33 34 35 36 37 38 39 40 41 42
000
FTUS41 KRNK 240847 AAA
TAFDAN
TAF AMD
KDAN 240847Z 2409/2506 34003KT P6SM VCTS SCT050CB BKN110
      TEMPO 2409/2410 2SM SHRA BR BKN040
     FM241000 28003KT 5SM BR BKN050
     FM241300 30004KT P6SM BKN100
     FM241800 35006KT P6SM VCTS BKN040CB
     FM242300 01005KT P6SM SCT050 BKN100=

USA.gov is the U.S. government's official web portal to all federal, state and local government web resources and services.